Time;durP1;ratioP1;P1;durP2;ratioP2;P2;SDS_P1;SDS_P2;PMS_P1;PMS_P2;Temp;Humidity;BMP_temperature;BMP_pressure;BME280_temperature;BME280_humidity;BME280_pressure;Samples;Min_cycle;Max_cycle;Signal;HPM_P1;HPM_P2
2023/05/12 00:01:01;;;;;;;4.03;1.75;;;11.30;99.90;;;;;;5050273;28;20234;-69
2023/05/12 00:03:28;;;;;;;2.22;0.88;;;11.30;99.90;;;;;;5050166;28;20234;-80
2023/05/12 00:05:54;;;;;;;1.88;0.57;;;11.30;99.90;;;;;;5049905;28;20270;-79
2023/05/12 00:08:23;;;;;;;2.03;0.73;;;11.30;99.90;;;;;;5050340;28;20614;-79
2023/05/12 00:10:50;;;;;;;0.80;0.55;;;11.30;99.90;;;;;;5050091;28;20239;-70
2023/05/12 00:13:17;;;;;;;0.93;0.85;;;11.20;99.90;;;;;;5051855;28;20230;-70
2023/05/12 00:15:44;;;;;;;1.50;0.73;;;11.20;99.90;;;;;;5053714;28;20207;-77
2023/05/12 00:18:11;;;;;;;0.65;0.45;;;11.20;99.90;;;;;;5053701;28;20230;-76
2023/05/12 00:20:38;;;;;;;0.80;0.40;;;11.20;99.90;;;;;;5053513;28;20242;-70
2023/05/12 00:23:05;;;;;;;1.63;1.08;;;11.10;99.90;;;;;;5054292;28;20210;-76
2023/05/12 00:25:34;;;;;;;1.38;0.60;;;11.10;99.90;;;;;;5054174;28;20265;-79
2023/05/12 00:28:01;;;;;;;1.08;1.00;;;11.00;99.90;;;;;;5053682;28;20206;-82
2023/05/12 00:30:28;;;;;;;1.73;0.43;;;11.10;99.90;;;;;;5053900;28;20234;-81
2023/05/12 00:32:54;;;;;;;1.00;0.80;;;11.10;99.90;;;;;;5053603;28;20231;-82
2023/05/12 00:35:21;;;;;;;0.50;0.50;;;11.20;99.90;;;;;;5053901;28;20238;-82
2023/05/12 00:37:48;;;;;;;1.88;0.70;;;11.10;99.90;;;;;;5053808;28;20230;-83
2023/05/12 00:40:15;;;;;;;2.75;0.43;;;11.10;99.90;;;;;;5053996;28;20238;-79
2023/05/12 00:42:43;;;;;;;1.15;0.60;;;11.00;99.90;;;;;;5053103;28;20290;-73
2023/05/12 00:45:11;;;;;;;1.35;0.73;;;11.00;99.90;;;;;;5053124;28;20322;-74
2023/05/12 00:47:39;;;;;;;1.77;0.50;;;10.90;99.90;;;;;;5052939;28;20202;-69
2023/05/12 00:50:07;;;;;;;1.67;0.82;;;10.90;99.90;;;;;;5053749;28;20253;-73
2023/05/12 00:52:34;;;;;;;2.55;1.15;;;10.90;99.90;;;;;;5053703;28;20209;-75
2023/05/12 00:55:02;;;;;;;0.70;0.70;;;10.90;99.90;;;;;;5053204;28;20582;-76
2023/05/12 00:57:29;;;;;;;0.70;0.63;;;10.90;99.90;;;;;;5053293;28;20203;-77
2023/05/12 00:59:58;;;;;;;2.10;1.02;;;10.90;99.90;;;;;;5052732;28;20241;-75
2023/05/12 01:02:25;;;;;;;1.65;0.63;;;10.90;99.90;;;;;;5052721;28;20626;-77
2023/05/12 01:04:52;;;;;;;0.47;0.47;;;11.10;99.90;;;;;;5052547;28;20332;-77
2023/05/12 01:07:21;;;;;;;2.28;0.98;;;11.00;99.90;;;;;;5053176;28;20333;-77
2023/05/12 01:09:48;;;;;;;0.75;0.52;;;10.90;99.90;;;;;;5052615;28;20290;-77
2023/05/12 01:12:15;;;;;;;1.15;0.70;;;11.10;99.90;;;;;;5052908;28;20237;-74
2023/05/12 01:14:42;;;;;;;0.82;0.73;;;11.10;99.90;;;;;;5052468;28;20247;-75
2023/05/12 01:17:13;;;;;;;0.95;0.70;;;11.10;99.90;;;;;;5052761;28;20234;-74
2023/05/12 01:19:43;;;;;;;6.72;1.00;;;11.10;99.90;;;;;;5052436;28;20203;-75
2023/05/12 01:22:12;;;;;;;0.80;0.80;;;11.00;99.90;;;;;;5053031;28;20241;-75
2023/05/12 01:24:52;;;;;;;0.75;0.52;;;11.00;99.90;;;;;;5051351;28;20317;-71
2023/05/12 01:27:22;;;;;;;4.28;1.05;;;11.20;99.90;;;;;;5052661;28;20238;-75
2023/05/12 01:29:51;;;;;;;0.93;0.70;;;11.30;99.90;;;;;;5052096;28;20576;-74
2023/05/12 01:32:18;;;;;;;3.63;0.88;;;11.20;99.90;;;;;;5052257;28;20226;-75
2023/05/12 01:34:46;;;;;;;1.20;0.60;;;11.00;99.90;;;;;;5051970;28;20660;-76
2023/05/12 01:37:13;;;;;;;2.10;0.95;;;10.90;99.90;;;;;;5052355;28;20242;-75
2023/05/12 01:39:40;;;;;;;1.80;1.00;;;10.90;99.90;;;;;;5051903;28;20210;-72
2023/05/12 01:42:07;;;;;;;1.55;0.65;;;10.90;99.90;;;;;;5052368;28;20207;-74
2023/05/12 01:44:35;;;;;;;2.92;0.70;;;10.90;99.90;;;;;;5052641;28;20230;-75
2023/05/12 01:47:02;;;;;;;0.60;0.50;;;11.00;99.90;;;;;;5052231;28;20249;-75
2023/05/12 01:49:29;;;;;;;1.65;0.50;;;11.00;99.90;;;;;;5052158;28;20620;-76
2023/05/12 01:51:56;;;;;;;2.15;0.80;;;10.90;99.90;;;;;;5051676;28;20242;-76
2023/05/12 01:54:23;;;;;;;0.70;0.50;;;10.90;99.90;;;;;;5052275;28;20242;-75
2023/05/12 01:56:50;;;;;;;0.70;0.63;;;10.90;99.90;;;;;;5051773;28;20238;-76
2023/05/12 01:59:17;;;;;;;1.27;0.57;;;10.80;99.90;;;;;;5051855;28;20246;-76
2023/05/12 02:01:45;;;;;;;1.08;0.65;;;10.80;99.90;;;;;;5051519;28;20242;-76
2023/05/12 02:04:12;;;;;;;0.70;0.70;;;10.80;99.90;;;;;;5051960;28;20245;-77
2023/05/12 02:06:39;;;;;;;1.08;0.90;;;10.90;99.90;;;;;;5051311;28;20234;-75
2023/05/12 02:09:06;;;;;;;4.13;1.02;;;10.90;99.90;;;;;;5052206;28;20203;-77
2023/05/12 02:11:33;;;;;;;1.50;0.80;;;10.90;99.90;;;;;;5052396;28;20265;-76
2023/05/12 02:14:00;;;;;;;0.98;0.70;;;10.90;99.90;;;;;;5051168;28;20260;-76
2023/05/12 02:16:26;;;;;;;3.33;1.08;;;10.90;99.90;;;;;;5051759;28;20245;-76
2023/05/12 02:18:55;;;;;;;3.08;1.45;;;11.00;99.90;;;;;;5051385;28;20234;-76
2023/05/12 02:21:22;;;;;;;2.65;1.13;;;10.90;99.90;;;;;;5051646;28;20646;-76
2023/05/12 02:23:48;;;;;;;2.17;0.90;;;10.90;99.90;;;;;;5051268;28;20650;-76
2023/05/12 02:26:15;;;;;;;2.97;1.02;;;10.80;99.90;;;;;;5051635;28;20281;-77
2023/05/12 02:28:42;;;;;;;3.55;1.42;;;10.70;99.90;;;;;;5050872;28;20265;-78
2023/05/12 02:31:09;;;;;;;1.08;0.98;;;10.80;99.90;;;;;;5051566;28;20234;-80
2023/05/12 02:33:36;;;;;;;0.88;0.88;;;10.70;99.90;;;;;;5051373;28;20246;-74
2023/05/12 02:36:05;;;;;;;1.77;1.10;;;10.70;99.90;;;;;;5051878;28;20290;-79
2023/05/12 02:38:32;;;;;;;2.03;1.10;;;10.60;99.90;;;;;;5051740;28;20633;-77
2023/05/12 02:40:59;;;;;;;2.50;1.23;;;10.60;99.90;;;;;;5050971;28;20202;-81
2023/05/12 02:43:26;;;;;;;5.00;1.30;;;10.70;1.00;;;;;;5051146;28;20238;-77
2023/05/12 02:45:54;;;;;;;5.50;1.90;;;10.50;1.00;;;;;;5050643;28;20266;-77
2023/05/12 02:48:21;;;;;;;1.20;1.00;;;10.50;1.00;;;;;;5051250;28;20248;-81
2023/05/12 02:50:48;;;;;;;1.58;1.40;;;10.50;1.00;;;;;;5051233;28;20272;-80
2023/05/12 02:53:16;;;;;;;4.18;2.03;;;10.50;1.00;;;;;;5051632;28;20238;-81
2023/05/12 02:55:43;;;;;;;3.10;1.13;;;10.50;1.00;;;;;;5051248;28;20253;-81
2023/05/12 02:58:10;;;;;;;5.38;2.28;;;10.60;1.00;;;;;;5051205;28;20269;-80
2023/05/12 03:00:38;;;;;;;1.77;1.43;;;10.60;1.00;;;;;;5051238;28;20631;-80
2023/05/12 03:03:04;;;;;;;2.60;1.30;;;10.60;1.00;;;;;;5051288;28;20276;-78
2023/05/12 03:05:31;;;;;;;5.80;1.80;;;10.60;1.00;;;;;;5051450;28;20311;-80
2023/05/12 03:07:58;;;;;;;6.22;1.58;;;10.70;1.00;;;;;;5050564;28;20242;-82
2023/05/12 03:10:27;;;;;;;3.53;1.75;;;10.70;1.00;;;;;;5050875;28;20560;-80
2023/05/12 03:12:54;;;;;;;5.07;1.90;;;10.70;1.00;;;;;;5050572;28;20302;-80
2023/05/12 03:15:21;;;;;;;2.45;1.35;;;10.70;1.00;;;;;;5051034;28;20207;-82
2023/05/12 03:17:48;;;;;;;2.60;1.60;;;10.70;1.00;;;;;;5050588;28;20659;-80
2023/05/12 03:20:15;;;;;;;5.82;1.80;;;10.70;1.00;;;;;;5051413;28;20300;-84
2023/05/12 03:22:42;;;;;;;4.07;1.90;;;10.80;1.00;;;;;;5050995;28;20202;-82
2023/05/12 03:25:10;;;;;;;5.10;2.08;;;10.80;1.00;;;;;;5051223;28;20270;-80
2023/05/12 03:27:39;;;;;;;5.78;2.13;;;10.70;1.00;;;;;;5050844;28;20276;-77
2023/05/12 03:30:07;;;;;;;3.92;1.88;;;10.60;1.00;;;;;;5047495;28;20242;-81
2023/05/12 03:32:33;;;;;;;2.42;1.45;;;10.50;1.00;;;;;;5059502;28;20265;-82
2023/05/12 03:35:01;;;;;;;7.83;2.20;;;10.60;1.00;;;;;;5050440;28;20210;-82
2023/05/12 03:37:28;;;;;;;5.35;2.00;;;10.50;1.00;;;;;;5032546;28;20242;-77
2023/05/12 03:39:55;;;;;;;2.80;1.42;;;10.50;1.00;;;;;;5030505;28;20247;-78
2023/05/12 03:42:23;;;;;;;4.22;2.08;;;10.50;1.00;;;;;;5030541;28;20285;-81
2023/05/12 03:44:52;;;;;;;7.68;3.38;;;10.50;1.00;;;;;;5030417;28;20257;-81
2023/05/12 03:47:19;;;;;;;6.70;2.78;;;10.60;1.00;;;;;;5030499;28;20231;-79
2023/05/12 03:49:46;;;;;;;2.75;2.05;;;10.50;1.00;;;;;;5052953;28;20237;-80
2023/05/12 03:52:13;;;;;;;4.13;2.42;;;10.50;1.00;;;;;;5054399;28;20238;-79
2023/05/12 03:54:39;;;;;;;14.85;2.17;;;10.50;1.00;;;;;;5054094;28;20253;-79
2023/05/12 03:57:07;;;;;;;3.72;2.92;;;10.50;1.00;;;;;;5053943;28;20294;-78
2023/05/12 03:59:34;;;;;;;5.85;2.10;;;10.50;1.00;;;;;;5054485;28;20203;-80
2023/05/12 04:02:02;;;;;;;2.33;1.70;;;10.50;1.00;;;;;;5053718;28;20265;-79
2023/05/12 04:04:29;;;;;;;3.65;2.10;;;10.50;1.00;;;;;;5053969;28;20206;-79
2023/05/12 04:06:56;;;;;;;4.18;1.90;;;10.50;1.00;;;;;;5053898;28;20288;-80
2023/05/12 04:09:23;;;;;;;3.88;1.92;;;10.50;1.00;;;;;;5053857;28;20657;-79
2023/05/12 04:11:50;;;;;;;5.60;2.20;;;10.50;1.00;;;;;;5053327;28;20207;-79
2023/05/12 04:14:18;;;;;;;4.68;2.20;;;10.50;1.00;;;;;;5054503;28;20237;-79
2023/05/12 04:16:44;;;;;;;5.07;2.50;;;10.50;1.00;;;;;;5053729;28;20205;-80
2023/05/12 04:19:13;;;;;;;4.93;2.65;;;10.70;1.00;;;;;;5054225;28;20580;-79
2023/05/12 04:21:40;;;;;;;6.00;2.40;;;10.70;1.00;;;;;;5053297;28;20249;-78
2023/05/12 04:24:07;;;;;;;4.20;2.28;;;10.60;1.00;;;;;;5052201;28;20234;-79
2023/05/12 04:26:34;;;;;;;5.93;2.47;;;10.60;1.00;;;;;;5033911;28;20270;-79
2023/05/12 04:29:00;;;;;;;8.07;2.60;;;10.50;1.00;;;;;;5033580;28;20211;-78
2023/05/12 04:31:27;;;;;;;3.97;2.03;;;10.50;1.00;;;;;;5033799;28;20718;-80
2023/05/12 04:33:54;;;;;;;4.07;2.35;;;10.50;1.00;;;;;;5033217;28;20254;-78
2023/05/12 04:36:23;;;;;;;7.15;3.00;;;10.60;1.00;;;;;;5033562;28;20211;-79
2023/05/12 04:38:50;;;;;;;3.42;2.60;;;10.50;1.00;;;;;;5033052;28;20231;-79
2023/05/12 04:41:17;;;;;;;3.47;1.92;;;10.70;1.00;;;;;;5033658;28;20210;-77
2023/05/12 04:43:44;;;;;;;4.18;2.08;;;10.70;1.00;;;;;;5034272;28;20758;-82
2023/05/12 04:46:11;;;;;;;5.10;2.55;;;10.70;1.00;;;;;;5052221;28;20261;-82
2023/05/12 04:48:40;;;;;;;3.33;2.70;;;10.60;1.00;;;;;;5049857;28;20231;-81
2023/05/12 04:51:07;;;;;;;7.03;3.33;;;10.60;1.00;;;;;;5046289;28;20206;-81
2023/05/12 04:53:36;;;;;;;5.85;2.47;;;10.70;1.00;;;;;;5042632;28;20705;-82
2023/05/12 04:56:03;;;;;;;6.28;2.83;;;10.60;1.00;;;;;;5043837;28;20206;-84
2023/05/12 04:58:30;;;;;;;3.63;2.40;;;10.60;1.00;;;;;;5052434;28;20362;-77
2023/05/12 05:00:57;;;;;;;5.60;3.37;;;10.60;1.00;;;;;;5051510;28;20246;-78
2023/05/12 05:03:24;;;;;;;11.23;3.65;;;10.60;1.00;;;;;;5052578;28;20203;-78
2023/05/12 05:05:51;;;;;;;6.00;2.60;;;10.60;1.00;;;;;;5052355;28;20262;-77
2023/05/12 05:08:18;;;;;;;6.53;2.55;;;10.60;1.00;;;;;;5052478;28;20242;-79
2023/05/12 05:10:46;;;;;;;7.43;3.00;;;10.70;1.00;;;;;;5050400;28;20207;-76
2023/05/12 05:13:13;;;;;;;5.10;3.17;;;10.60;1.00;;;;;;5051494;28;20242;-75
2023/05/12 05:15:40;;;;;;;6.68;3.53;;;10.60;1.00;;;;;;5051674;28;20253;-78
2023/05/12 05:18:07;;;;;;;6.80;3.03;;;10.60;1.00;;;;;;5052039;28;20238;-77
2023/05/12 05:20:34;;;;;;;3.88;3.53;;;10.70;1.00;;;;;;5052516;28;20250;-78
2023/05/12 05:23:01;;;;;;;6.65;4.25;;;10.60;1.00;;;;;;5051893;28;20582;-77
2023/05/12 05:25:28;;;;;;;9.18;4.10;;;10.60;1.00;;;;;;5039887;28;20223;-77
2023/05/12 05:27:56;;;;;;;6.83;4.37;;;10.70;1.00;;;;;;5032427;28;20203;-78
2023/05/12 05:30:23;;;;;;;7.95;4.45;;;10.60;1.00;;;;;;5050676;28;20246;-78
2023/05/12 05:32:50;;;;;;;5.10;3.90;;;10.70;1.00;;;;;;5051682;28;20234;-78
2023/05/12 05:35:17;;;;;;;7.03;4.10;;;10.60;1.00;;;;;;5052371;28;20260;-79
2023/05/12 05:37:44;;;;;;;9.43;5.22;;;10.70;1.00;;;;;;5051909;28;20246;-78
2023/05/12 05:40:12;;;;;;;12.40;3.73;;;10.80;1.00;;;;;;5052301;28;20206;-79
2023/05/12 05:42:39;;;;;;;5.20;4.70;;;10.80;1.00;;;;;;5051957;28;20582;-78
2023/05/12 05:45:09;;;;;;;8.20;4.72;;;10.80;1.00;;;;;;5052210;28;20199;-79
2023/05/12 05:47:36;;;;;;;4.45;3.80;;;10.80;1.00;;;;;;5051963;28;20288;-79
2023/05/12 05:50:03;;;;;;;8.23;4.00;;;10.80;1.00;;;;;;5052060;28;20222;-79
2023/05/12 05:52:30;;;;;;;8.15;3.63;;;10.80;1.00;;;;;;5051733;28;20246;-80
2023/05/12 05:54:57;;;;;;;6.57;4.10;;;10.80;1.00;;;;;;5031855;28;20254;-77
2023/05/12 05:57:26;;;;;;;7.55;4.40;;;10.80;1.00;;;;;;5043482;28;20247;-83
2023/05/12 05:59:53;;;;;;;7.40;4.25;;;10.80;1.00;;;;;;5035018;28;20281;-81
2023/05/12 06:02:22;;;;;;;5.68;4.25;;;10.80;1.00;;;;;;5056534;28;20217;-81
2023/05/12 06:04:51;;;;;;;6.28;5.35;;;10.90;1.00;;;;;;5051637;28;20689;-79
2023/05/12 06:07:18;;;;;;;6.88;6.15;;;11.00;1.00;;;;;;5046600;28;20238;-80
2023/05/12 06:09:45;;;;;;;11.30;6.95;;;11.10;1.00;;;;;;5039270;28;20238;-82
2023/05/12 06:12:12;;;;;;;6.25;4.82;;;11.20;1.00;;;;;;5051338;28;20249;-78
2023/05/12 06:14:38;;;;;;;6.50;5.23;;;11.20;1.00;;;;;;5045523;28;20238;-76
2023/05/12 06:17:06;;;;;;;13.63;5.10;;;11.20;1.00;;;;;;5051975;28;20253;-83
2023/05/12 06:19:34;;;;;;;7.90;4.82;;;11.30;1.00;;;;;;5051559;28;20690;-78
2023/05/12 06:22:01;;;;;;;6.60;4.23;;;11.30;1.00;;;;;;5050851;28;20643;-78
2023/05/12 06:24:28;;;;;;;7.78;4.88;;;11.30;1.00;;;;;;5051446;28;20234;-78
2023/05/12 06:26:55;;;;;;;9.57;5.18;;;11.40;1.00;;;;;;5050744;28;20266;-77
2023/05/12 06:29:22;;;;;;;7.50;4.97;;;11.50;1.00;;;;;;5051494;28;20234;-76
2023/05/12 06:31:49;;;;;;;9.82;5.30;;;11.70;1.00;;;;;;5050343;28;20253;-74
2023/05/12 06:34:16;;;;;;;5.63;4.30;;;11.60;1.00;;;;;;5050461;28;20268;-77
2023/05/12 06:36:44;;;;;;;6.57;4.10;;;11.60;1.00;;;;;;5049058;28;20751;-76
2023/05/12 06:39:12;;;;;;;6.75;4.32;;;11.60;1.00;;;;;;5049808;28;20285;-74
2023/05/12 06:41:39;;;;;;;7.32;5.72;;;11.80;1.00;;;;;;5048800;28;20239;-73
2023/05/12 06:44:06;;;;;;;7.85;4.70;;;11.90;1.00;;;;;;5049688;28;20202;-73
2023/05/12 06:46:33;;;;;;;6.80;4.68;;;12.00;1.00;;;;;;5046667;28;20547;-77
2023/05/12 06:49:00;;;;;;;9.80;4.82;;;12.00;1.00;;;;;;5042452;28;20249;-72
2023/05/12 06:51:27;;;;;;;8.57;3.60;;;11.80;1.00;;;;;;5046324;28;20285;-71
2023/05/12 06:53:55;;;;;;;4.13;3.72;;;11.80;1.00;;;;;;5050191;28;20238;-71
2023/05/12 06:56:22;;;;;;;4.20;3.38;;;11.80;1.00;;;;;;5050912;28;20238;-71
2023/05/12 06:58:49;;;;;;;6.53;4.35;;;11.80;1.00;;;;;;5050106;28;20573;-71
2023/05/12 07:01:16;;;;;;;7.82;3.90;;;11.70;1.00;;;;;;5050530;28;20689;-71
2023/05/12 07:03:43;;;;;;;7.13;4.80;;;11.70;1.00;;;;;;5049994;28;20219;-71
2023/05/12 07:06:10;;;;;;;7.15;3.80;;;11.60;1.00;;;;;;5050540;28;20707;-71
2023/05/12 07:08:37;;;;;;;7.55;3.22;;;11.70;1.00;;;;;;5050780;28;20211;-71
2023/05/12 07:11:05;;;;;;;9.32;3.70;;;11.70;1.00;;;;;;5051352;28;20234;-70
2023/05/12 07:13:32;;;;;;;8.60;3.30;;;11.70;1.00;;;;;;5051239;28;20238;-70
2023/05/12 07:15:59;;;;;;;12.18;3.20;;;11.70;1.00;;;;;;5050201;28;20242;-71
2023/05/12 07:18:26;;;;;;;6.32;3.78;;;11.70;1.00;;;;;;5050561;28;20214;-70
2023/05/12 07:20:53;;;;;;;7.28;3.70;;;11.90;1.00;;;;;;5049740;28;20603;-70
2023/05/12 07:23:20;;;;;;;7.57;4.53;;;12.00;1.00;;;;;;5052096;28;20710;-71
2023/05/12 07:25:47;;;;;;;8.18;5.07;;;12.20;1.00;;;;;;5054540;28;20242;-70
2023/05/12 07:28:15;;;;;;;7.03;4.07;;;12.30;1.00;;;;;;5054539;28;20273;-70
2023/05/12 07:30:42;;;;;;;6.80;3.28;;;12.20;1.00;;;;;;5054392;28;20230;-70
2023/05/12 07:33:09;;;;;;;7.75;3.17;;;12.30;1.00;;;;;;5054420;28;20320;-70
2023/05/12 07:35:36;;;;;;;3.75;2.97;;;12.30;1.00;;;;;;5054314;28;20234;-70
2023/05/12 07:38:03;;;;;;;6.45;2.92;;;12.30;1.00;;;;;;5053728;28;20210;-70
2023/05/12 07:40:30;;;;;;;3.25;2.80;;;12.20;1.00;;;;;;5054312;28;20222;-70
2023/05/12 07:42:57;;;;;;;7.47;4.55;;;12.20;1.00;;;;;;5053951;28;20648;-70
2023/05/12 07:45:25;;;;;;;7.75;4.20;;;12.20;1.00;;;;;;5054532;28;20234;-70
2023/05/12 07:47:52;;;;;;;12.93;4.43;;;12.20;1.00;;;;;;5053775;28;20270;-70
2023/05/12 07:50:19;;;;;;;6.80;3.03;;;12.20;1.00;;;;;;5054247;28;20242;-71
2023/05/12 07:52:47;;;;;;;6.18;4.15;;;12.20;1.00;;;;;;5053500;28;20238;-71
2023/05/12 07:55:14;;;;;;;7.82;3.38;;;12.20;1.00;;;;;;5053942;28;20211;-71
2023/05/12 07:57:41;;;;;;;11.38;3.63;;;12.20;1.00;;;;;;5053886;28;20237;-71
2023/05/12 08:00:09;;;;;;;7.90;3.70;;;12.20;1.00;;;;;;5054203;28;20209;-71
2023/05/12 08:02:39;;;;;;;7.85;3.05;;;12.10;1.00;;;;;;5053664;28;20687;-72
2023/05/12 08:05:07;;;;;;;7.65;2.75;;;12.20;1.00;;;;;;5054204;28;20214;-71
2023/05/12 08:07:34;;;;;;;4.38;2.65;;;12.20;1.00;;;;;;5054446;28;20595;-72
2023/05/12 08:10:01;;;;;;;8.48;3.38;;;12.30;1.00;;;;;;5054077;28;20203;-72
2023/05/12 08:12:28;;;;;;;4.78;2.60;;;12.30;1.00;;;;;;5051682;28;20209;-78
2023/05/12 08:14:55;;;;;;;5.97;2.70;;;12.40;99.90;;;;;;5048942;28;20231;-73
2023/05/12 08:17:22;;;;;;;5.15;3.35;;;12.50;1.00;;;;;;5052643;28;20250;-77
2023/05/12 08:19:51;;;;;;;6.82;2.65;;;12.60;99.90;;;;;;5055560;28;20621;-73
2023/05/12 08:22:18;;;;;;;6.20;3.00;;;12.80;99.90;;;;;;5053773;28;20744;-74
2023/05/12 08:24:46;;;;;;;4.03;2.45;;;12.80;99.90;;;;;;5071981;28;20234;-72
2023/05/12 08:27:12;;;;;;;9.13;1.90;;;13.00;99.90;;;;;;5073695;28;20269;-72
2023/05/12 08:29:40;;;;;;;4.90;2.80;;;13.30;99.90;;;;;;5066560;28;20249;-81
2023/05/12 08:32:07;;;;;;;8.68;2.95;;;13.40;99.90;;;;;;5051195;28;20246;-73
2023/05/12 08:34:34;;;;;;;6.95;2.50;;;13.50;99.90;;;;;;5053144;28;20241;-72
2023/05/12 08:37:03;;;;;;;7.45;3.15;;;13.50;99.90;;;;;;5052485;28;20214;-72
2023/05/12 08:39:32;;;;;;;3.40;2.45;;;13.60;99.90;;;;;;5052904;28;20246;-74
2023/05/12 08:42:08;;;;;;;6.28;2.80;;;13.70;99.90;;;;;;5052051;28;20207;-73
2023/05/12 08:44:36;;;;;;;5.05;2.42;;;14.00;99.90;;;;;;5053413;28;20214;-73
2023/05/12 08:47:05;;;;;;;7.38;2.72;;;13.90;99.90;;;;;;5051289;28;20285;-82
2023/05/12 08:49:35;;;;;;;6.93;2.47;;;14.10;99.90;;;;;;5050374;28;20203;-78
2023/05/12 08:52:04;;;;;;;6.15;2.53;;;14.40;99.90;;;;;;5052036;28;20207;-75
2023/05/12 08:54:33;;;;;;;8.10;2.20;;;14.30;99.90;;;;;;5052863;28;20587;-75
2023/05/12 08:57:01;;;;;;;4.22;2.13;;;14.50;99.90;;;;;;5032808;28;20235;-75
2023/05/12 08:59:28;;;;;;;3.03;2.50;;;14.40;99.90;;;;;;5038276;28;20207;-73
2023/05/12 09:01:56;;;;;;;7.60;3.45;;;14.10;99.90;;;;;;5051173;28;20250;-76
2023/05/12 09:04:23;;;;;;;4.85;2.00;;;14.10;99.90;;;;;;5052743;28;20246;-75
2023/05/12 09:06:50;;;;;;;10.55;2.78;;;14.90;99.90;;;;;;5051775;28;20669;-75
2023/05/12 09:09:20;;;;;;;9.25;3.40;;;15.20;99.90;;;;;;5052724;28;20686;-75
2023/05/12 09:11:51;;;;;;;3.47;2.50;;;15.20;99.90;;;;;;5051773;28;20253;-76
2023/05/12 09:14:24;;;;;;;7.95;3.58;;;15.10;99.90;;;;;;5051600;28;20254;-75
2023/05/12 09:17:04;;;;;;;7.72;2.75;;;14.70;99.90;;;;;;5052282;28;20207;-76
2023/05/12 09:19:31;;;;;;;2.83;1.83;;;14.50;99.90;;;;;;5053067;28;20218;-75
2023/05/12 09:21:59;;;;;;;4.43;1.95;;;14.60;99.90;;;;;;5052173;28;20211;-74
2023/05/12 09:24:35;;;;;;;3.10;1.45;;;14.50;99.90;;;;;;5052562;28;20684;-75
2023/05/12 09:27:03;;;;;;;3.70;2.00;;;15.50;99.90;;;;;;5052401;28;20209;-75
2023/05/12 09:29:30;;;;;;;4.25;2.42;;;15.00;99.90;;;;;;5052162;28;20210;-74
2023/05/12 09:31:58;;;;;;;4.03;2.38;;;14.50;99.90;;;;;;5052105;28;20651;-76
2023/05/12 09:34:27;;;;;;;5.65;2.03;;;15.20;99.90;;;;;;5052261;28;20675;-77
2023/05/12 09:36:59;;;;;;;3.38;2.15;;;15.20;99.90;;;;;;5051909;28;20203;-76
2023/05/12 09:39:27;;;;;;;4.63;2.67;;;14.70;99.90;;;;;;5052442;28;20589;-77
2023/05/12 09:41:56;;;;;;;3.70;1.58;;;14.10;99.90;;;;;;5051859;28;20207;-75
2023/05/12 09:44:24;;;;;;;3.75;2.58;;;14.00;99.90;;;;;;5052099;28;20231;-75
2023/05/12 09:46:51;;;;;;;3.83;2.45;;;14.10;99.90;;;;;;5050901;28;20700;-73
2023/05/12 09:49:19;;;;;;;5.53;1.73;;;14.30;99.90;;;;;;5051359;28;20301;-74
2023/05/12 09:51:47;;;;;;;3.00;2.10;;;14.50;99.90;;;;;;5051275;28;20713;-73
2023/05/12 09:54:25;;;;;;;5.72;2.35;;;14.70;99.90;;;;;;5049793;28;20210;-75
2023/05/12 09:56:56;;;;;;;2.88;1.67;;;15.00;99.90;;;;;;5045283;28;20568;-74
2023/05/12 09:59:30;;;;;;;6.53;2.92;;;15.60;99.90;;;;;;5048393;28;20226;-75
2023/05/12 10:02:00;;;;;;;6.15;2.22;;;15.70;99.90;;;;;;5045971;28;20264;-73
2023/05/12 10:04:28;;;;;;;2.78;1.63;;;16.00;99.90;;;;;;5051098;28;20205;-73
2023/05/12 10:06:55;;;;;;;3.30;1.83;;;17.00;99.90;;;;;;5051106;28;20649;-72
2023/05/12 10:09:28;;;;;;;3.22;1.75;;;15.90;99.90;;;;;;5056654;28;20225;-72
2023/05/12 10:11:55;;;;;;;3.17;1.85;;;15.20;99.90;;;;;;5049599;28;20261;-73
2023/05/12 10:14:23;;;;;;;7.30;1.77;;;15.20;99.90;;;;;;5051405;28;20212;-74
2023/05/12 10:16:52;;;;;;;6.13;2.75;;;15.10;99.90;;;;;;5071125;28;20284;-74
2023/05/12 10:19:20;;;;;;;2.95;1.92;;;15.00;99.90;;;;;;5071591;28;20309;-73
2023/05/12 10:21:47;;;;;;;14.57;3.70;;;15.40;99.90;;;;;;5070964;28;20673;-75
2023/05/12 10:24:15;;;;;;;5.18;3.00;;;15.60;99.90;;;;;;5071103;28;20230;-74
2023/05/12 10:26:43;;;;;;;3.30;1.75;;;16.30;99.90;;;;;;5050234;28;20226;-74
2023/05/12 10:29:11;;;;;;;5.90;2.75;;;15.90;99.90;;;;;;5051138;28;20245;-73
2023/05/12 10:31:38;;;;;;;2.70;2.22;;;15.70;99.90;;;;;;5051236;28;20230;-71
2023/05/12 10:34:07;;;;;;;6.60;3.78;;;15.40;99.90;;;;;;5050852;28;20650;-71
2023/05/12 10:36:45;;;;;;;4.78;2.80;;;15.10;99.90;;;;;;5051287;28;20242;-73
2023/05/12 10:39:15;;;;;;;3.03;1.65;;;14.90;99.90;;;;;;5051270;28;20712;-74
2023/05/12 10:41:42;;;;;;;3.92;2.67;;;15.10;99.90;;;;;;5050684;28;20578;-74
2023/05/12 10:44:09;;;;;;;5.00;2.47;;;15.30;99.90;;;;;;5051134;28;20203;-72
2023/05/12 10:46:37;;;;;;;4.18;2.50;;;15.30;99.90;;;;;;5063079;28;20225;-74
2023/05/12 10:49:11;;;;;;;3.55;1.77;;;15.40;99.90;;;;;;5071345;28;20240;-76
2023/05/12 10:51:49;;;;;;;3.42;1.80;;;15.60;99.90;;;;;;5070657;28;20205;-72
2023/05/12 10:54:21;;;;;;;4.63;2.08;;;15.60;99.90;;;;;;5064357;28;20206;-74
2023/05/12 10:56:48;;;;;;;2.92;2.15;;;15.40;99.90;;;;;;5049848;28;20289;-73
2023/05/12 10:59:20;;;;;;;3.72;2.58;;;15.30;99.90;;;;;;5050911;28;20214;-74
2023/05/12 11:01:59;;;;;;;3.55;1.30;;;15.20;99.90;;;;;;5050396;28;20237;-76
2023/05/12 11:04:39;;;;;;;3.70;1.75;;;15.20;99.90;;;;;;5050888;28;20213;-74
2023/05/12 11:07:08;;;;;;;4.72;1.60;;;15.10;99.90;;;;;;5049871;28;20203;-75
2023/05/12 11:09:36;;;;;;;3.92;1.83;;;15.10;99.90;;;;;;5051002;28;20243;-71
2023/05/12 11:12:03;;;;;;;4.53;2.53;;;15.10;99.90;;;;;;5048813;28;20207;-72
2023/05/12 11:14:31;;;;;;;6.88;2.22;;;15.50;99.90;;;;;;5035610;28;20206;-70
2023/05/12 11:16:58;;;;;;;4.35;1.88;;;16.30;99.90;;;;;;5049668;28;20273;-73
2023/05/12 11:19:25;;;;;;;5.18;1.67;;;16.90;99.90;;;;;;5050247;28;20242;-72
2023/05/12 11:21:54;;;;;;;2.85;1.67;;;17.10;99.90;;;;;;5049948;28;20203;-71
2023/05/12 11:24:21;;;;;;;6.43;2.63;;;17.20;99.90;;;;;;5050668;28;20236;-71
2023/05/12 11:26:50;;;;;;;4.60;1.80;;;17.70;99.90;;;;;;5050044;28;20234;-71
2023/05/12 11:29:18;;;;;;;2.28;1.42;;;17.80;99.90;;;;;;5050089;28;20313;-72
2023/05/12 11:31:48;;;;;;;2.60;1.50;;;18.00;99.90;;;;;;5043184;28;20207;-71
2023/05/12 11:34:15;;;;;;;4.00;1.48;;;17.60;99.90;;;;;;5030315;28;20294;-72
2023/05/12 11:36:44;;;;;;;3.10;1.50;;;17.60;99.90;;;;;;5029939;28;20286;-70
2023/05/12 11:39:16;;;;;;;4.22;1.90;;;16.80;99.90;;;;;;5030306;28;20218;-70
2023/05/12 11:41:44;;;;;;;3.05;1.95;;;16.70;99.90;;;;;;5029741;28;20212;-70
2023/05/12 11:44:16;;;;;;;3.75;1.63;;;16.80;99.90;;;;;;5030385;28;20246;-72
2023/05/12 11:46:54;;;;;;;6.85;2.58;;;15.90;99.90;;;;;;5030132;28;20243;-72
2023/05/12 11:49:21;;;;;;;3.00;1.42;;;15.50;99.90;;;;;;5031909;28;20262;-74
2023/05/12 11:51:50;;;;;;;3.22;2.10;;;15.20;99.90;;;;;;5042169;28;20242;-73
2023/05/12 11:54:19;;;;;;;1.92;1.42;;;15.30;99.90;;;;;;5048245;28;20238;-75
2023/05/12 11:56:50;;;;;;;3.58;2.95;;;15.30;99.90;;;;;;5048562;28;20233;-71
2023/05/12 11:59:29;;;;;;;4.97;1.80;;;15.40;99.90;;;;;;5049837;28;20667;-73
2023/05/12 12:01:58;;;;;;;4.53;2.28;;;15.40;99.90;;;;;;5048855;28;20245;-70
2023/05/12 12:04:35;;;;;;;4.93;1.63;;;15.50;99.90;;;;;;5049860;28;20325;-72
2023/05/12 12:07:02;;;;;;;6.05;2.03;;;15.70;99.90;;;;;;5045083;28;20209;-74
2023/05/12 12:09:35;;;;;;;2.40;1.50;;;15.70;99.90;;;;;;5038449;28;20262;-72
2023/05/12 12:12:03;;;;;;;1.90;1.50;;;15.60;99.90;;;;;;5034071;28;20253;-73
2023/05/12 12:14:31;;;;;;;2.25;1.63;;;15.50;99.90;;;;;;5050945;28;20207;-71
2023/05/12 12:16:59;;;;;;;1.30;1.10;;;15.10;99.90;;;;;;5044561;28;20222;-71
2023/05/12 12:19:26;;;;;;;1.35;0.70;;;15.00;99.90;;;;;;5033738;28;20586;-71
2023/05/12 12:21:53;;;;;;;1.15;0.90;;;14.70;99.90;;;;;;5042964;28;20230;-73
2023/05/12 12:24:20;;;;;;;2.58;0.82;;;14.50;99.90;;;;;;5042886;28;20238;-70
2023/05/12 12:26:49;;;;;;;2.13;0.95;;;14.40;99.90;;;;;;5052962;28;20234;-72
2023/05/12 12:29:16;;;;;;;5.57;1.50;;;14.60;99.90;;;;;;5053445;28;20226;-73
2023/05/12 12:31:43;;;;;;;2.00;1.13;;;15.10;99.90;;;;;;5053014;28;20199;-72
2023/05/12 12:34:10;;;;;;;1.10;1.00;;;15.10;99.90;;;;;;5053360;28;20231;-73
2023/05/12 12:36:37;;;;;;;1.77;1.13;;;15.20;99.90;;;;;;5053554;28;20242;-71
2023/05/12 12:39:04;;;;;;;3.53;1.02;;;15.50;99.90;;;;;;5053544;28;20578;-73
2023/05/12 12:41:31;;;;;;;4.15;2.28;;;15.80;99.90;;;;;;5053338;28;20570;-71
2023/05/12 12:43:59;;;;;;;1.70;1.10;;;16.20;99.90;;;;;;5052197;28;20211;-72
2023/05/12 12:46:26;;;;;;;1.90;1.10;;;16.70;99.90;;;;;;5053561;28;20245;-71
2023/05/12 12:48:53;;;;;;;1.73;1.42;;;17.00;99.90;;;;;;5052853;28;20326;-73
2023/05/12 12:51:20;;;;;;;2.20;1.10;;;17.20;99.90;;;;;;5053382;28;20253;-73
2023/05/12 12:53:47;;;;;;;1.70;1.27;;;17.40;99.90;;;;;;5052712;28;20242;-74